Time;durP1;ratioP1;P1;durP2;ratioP2;P2;SDS_P1;SDS_P2;PMS_P1;PMS_P2;Temp;Humidity;BMP_temperature;BMP_pressure;BME280_temperature;BME280_humidity;BME280_pressure;Samples;Min_cycle;Max_cycle;Signal;HPM_P1;HPM_P2
2024/03/15 00:00:36;;;;;;;12.35;8.15;;;;;;;;;;4963835;28;25068;-72
2024/03/15 00:03:02;;;;;;;12.15;7.72;;;;;;;;;;4963349;28;25070;-71
2024/03/15 00:05:29;;;;;;;11.75;8.07;;;;;;;;;;4964634;28;25088;-72
2024/03/15 00:07:55;;;;;;;16.15;9.23;;;;;;;;;;4963651;28;25114;-71
2024/03/15 00:10:22;;;;;;;11.15;8.02;;;;;;;;;;4959601;28;25063;-72
2024/03/15 00:12:49;;;;;;;10.20;7.97;;;;;;;;;;4966193;28;25066;-72
2024/03/15 00:15:16;;;;;;;11.18;8.27;;;;;;;;;;4957014;28;25144;-72
2024/03/15 00:17:42;;;;;;;15.23;8.45;;;;;;;;;;4963554;28;25115;-72
2024/03/15 00:20:10;;;;;;;12.73;8.13;;;;;;;;;;4972428;28;25062;-72
2024/03/15 00:22:36;;;;;;;12.40;8.30;;;;;;;;;;4963442;28;25067;-73
2024/03/15 00:25:03;;;;;;;10.35;7.93;;;;;;;;;;4964898;28;25058;-73
2024/03/15 00:27:29;;;;;;;13.57;8.35;;;;;;;;;;4965453;28;25053;-72
2024/03/15 00:29:55;;;;;;;12.25;8.43;;;;;;;;;;4985673;28;25085;-72
2024/03/15 00:32:21;;;;;;;14.05;7.90;;;;;;;;;;4965122;28;25102;-74
2024/03/15 00:34:47;;;;;;;10.88;8.30;;;;;;;;;;4969176;28;25075;-72
2024/03/15 00:37:13;;;;;;;12.10;8.00;;;;;;;;;;4967045;28;25061;-72
2024/03/15 00:39:39;;;;;;;12.80;7.65;;;;;;;;;;4969566;28;25139;-73
2024/03/15 00:42:05;;;;;;;15.60;8.25;;;;;;;;;;4965734;28;25054;-73
2024/03/15 00:44:31;;;;;;;13.57;7.90;;;;;;;;;;4959872;28;25054;-72
2024/03/15 00:46:57;;;;;;;15.38;7.85;;;;;;;;;;4967703;28;25056;-73
2024/03/15 00:49:23;;;;;;;12.05;7.40;;;;;;;;;;4965320;28;25082;-72
2024/03/15 00:51:49;;;;;;;12.00;7.90;;;;;;;;;;4969244;28;25090;-71
2024/03/15 00:54:15;;;;;;;15.23;7.82;;;;;;;;;;4966764;28;25048;-71
2024/03/15 00:56:41;;;;;;;13.00;7.63;;;;;;;;;;4967741;28;25060;-73
2024/03/15 00:59:08;;;;;;;11.50;7.65;;;;;;;;;;4971019;28;25064;-73
2024/03/15 01:01:35;;;;;;;8.27;6.82;;;;;;;;;;4967337;28;25073;-72
2024/03/15 01:04:04;;;;;;;9.75;7.53;;;;;;;;;;4968506;28;25107;-71
2024/03/15 01:06:30;;;;;;;12.30;7.57;;;;;;;;;;4969413;28;25051;-72
2024/03/15 01:08:56;;;;;;;13.15;7.80;;;;;;;;;;4970334;28;25083;-70
2024/03/15 01:11:22;;;;;;;10.43;7.22;;;;;;;;;;4975720;28;25138;-72
2024/03/15 01:13:54;;;;;;;14.55;8.55;;;;;;;;;;4967105;28;25127;-74
2024/03/15 01:16:20;;;;;;;9.57;7.45;;;;;;;;;;4968577;28;25137;-70
2024/03/15 01:18:46;;;;;;;11.20;7.75;;;;;;;;;;4971040;28;25086;-72
2024/03/15 01:21:12;;;;;;;13.18;7.45;;;;;;;;;;4975785;28;25053;-73
2024/03/15 01:23:38;;;;;;;11.73;7.57;;;;;;;;;;4977449;28;25093;-72
2024/03/15 01:26:04;;;;;;;10.63;6.95;;;;;;;;;;4978593;28;25056;-73
2024/03/15 01:28:30;;;;;;;12.77;7.45;;;;;;;;;;4967136;28;25047;-72
2024/03/15 01:30:58;;;;;;;11.07;6.90;;;;;;;;;;4959321;28;25093;-73
2024/03/15 01:33:24;;;;;;;11.35;6.90;;;;;;;;;;4961718;28;25082;-71
2024/03/15 01:35:50;;;;;;;12.52;6.70;;;;;;;;;;4967198;28;25071;-72
2024/03/15 01:38:16;;;;;;;10.30;5.85;;;;;;;;;;4970363;28;25135;-72
2024/03/15 01:40:42;;;;;;;12.02;6.55;;;;;;;;;;4966066;28;25019;-72
2024/03/15 01:43:12;;;;;;;8.40;5.70;;;;;;;;;;4961968;28;25114;-73
2024/03/15 01:45:39;;;;;;;10.75;6.20;;;;;;;;;;4965895;28;25073;-70
2024/03/15 01:48:07;;;;;;;9.95;5.90;;;;;;;;;;4965376;28;25169;-72
2024/03/15 01:50:33;;;;;;;7.72;5.80;;;;;;;;;;4965683;28;25068;-72
2024/03/15 01:53:00;;;;;;;9.88;5.72;;;;;;;;;;4967756;28;25070;-71
2024/03/15 01:55:27;;;;;;;9.10;6.05;;;;;;;;;;4961820;28;25181;-72
2024/03/15 01:57:53;;;;;;;11.88;6.40;;;;;;;;;;4967782;28;25064;-74
2024/03/15 02:00:20;;;;;;;8.80;5.70;;;;;;;;;;4963318;28;25061;-72
2024/03/15 02:02:46;;;;;;;10.90;6.78;;;;;;;;;;4962381;28;25081;-71
2024/03/15 02:05:14;;;;;;;9.35;6.63;;;;;;;;;;4962210;28;25073;-68
2024/03/15 02:07:40;;;;;;;10.18;6.43;;;;;;;;;;4970463;28;25079;-71
2024/03/15 02:10:13;;;;;;;12.57;6.93;;;;;;;;;;4961075;28;25059;-73
2024/03/15 02:12:39;;;;;;;12.63;6.50;;;;;;;;;;4968663;28;25076;-71
2024/03/15 02:15:07;;;;;;;12.25;6.38;;;;;;;;;;4967466;28;25072;-71
2024/03/15 02:17:33;;;;;;;11.25;6.35;;;;;;;;;;4960312;28;25152;-70
2024/03/15 02:19:59;;;;;;;9.77;7.20;;;;;;;;;;4971620;28;25054;-71
2024/03/15 02:22:26;;;;;;;12.45;6.25;;;;;;;;;;4977491;28;25092;-71
2024/03/15 02:24:51;;;;;;;12.00;6.10;;;;;;;;;;4964391;28;25060;-72
2024/03/15 02:27:17;;;;;;;12.55;6.68;;;;;;;;;;4964388;28;25136;-71
2024/03/15 02:29:45;;;;;;;14.38;6.78;;;;;;;;;;4972159;28;25057;-71
2024/03/15 02:32:11;;;;;;;9.30;7.20;;;;;;;;;;4960437;28;25059;-72
2024/03/15 02:34:38;;;;;;;12.40;8.00;;;;;;;;;;4966502;28;25100;-72
2024/03/15 02:37:07;;;;;;;17.25;7.60;;;;;;;;;;4965073;28;25075;-72
2024/03/15 02:39:34;;;;;;;10.95;7.70;;;;;;;;;;4966093;28;25065;-72
2024/03/15 02:42:03;;;;;;;11.07;7.55;;;;;;;;;;4972817;28;25067;-72
2024/03/15 02:44:30;;;;;;;10.48;7.97;;;;;;;;;;4963273;28;25236;-72
2024/03/15 02:46:56;;;;;;;15.95;8.20;;;;;;;;;;4954040;28;25098;-73
2024/03/15 02:49:23;;;;;;;12.85;7.90;;;;;;;;;;4957094;28;25070;-72
2024/03/15 02:51:51;;;;;;;12.30;7.25;;;;;;;;;;4955145;28;25058;-73
2024/03/15 02:54:17;;;;;;;12.50;8.10;;;;;;;;;;4964292;28;25052;-71
2024/03/15 02:56:43;;;;;;;11.32;7.88;;;;;;;;;;4956667;28;25079;-72
2024/03/15 02:59:09;;;;;;;9.77;7.45;;;;;;;;;;4967604;28;25119;-71
2024/03/15 03:01:35;;;;;;;7.95;7.05;;;;;;;;;;4964442;28;25099;-73
2024/03/15 03:04:01;;;;;;;10.20;7.55;;;;;;;;;;4962563;28;25120;-72
2024/03/15 03:06:27;;;;;;;10.98;8.15;;;;;;;;;;4961952;28;25047;-72
2024/03/15 03:08:54;;;;;;;12.63;8.65;;;;;;;;;;4964372;28;25138;-72
2024/03/15 03:11:20;;;;;;;17.02;7.60;;;;;;;;;;4960983;28;25441;-72
2024/03/15 03:13:46;;;;;;;11.98;7.47;;;;;;;;;;4967971;28;25147;-72
2024/03/15 03:16:21;;;;;;;10.88;7.45;;;;;;;;;;4984856;28;25085;-71
2024/03/15 03:18:47;;;;;;;13.32;8.02;;;;;;;;;;4980785;28;25075;-71
2024/03/15 03:21:13;;;;;;;14.48;7.85;;;;;;;;;;4986527;28;25051;-72
2024/03/15 03:23:39;;;;;;;10.73;6.93;;;;;;;;;;4991339;28;25093;-72
2024/03/15 03:26:06;;;;;;;10.43;7.18;;;;;;;;;;4989478;28;25078;-72
2024/03/15 03:28:32;;;;;;;11.05;7.40;;;;;;;;;;4982241;28;25078;-72
2024/03/15 03:30:58;;;;;;;11.27;7.18;;;;;;;;;;4978564;28;25062;-73
2024/03/15 03:33:25;;;;;;;10.55;6.82;;;;;;;;;;4971779;28;25061;-73
2024/03/15 03:35:51;;;;;;;10.82;5.70;;;;;;;;;;4973160;28;25059;-74
2024/03/15 03:38:17;;;;;;;14.50;7.38;;;;;;;;;;4969177;28;25058;-74
2024/03/15 03:40:43;;;;;;;9.25;6.72;;;;;;;;;;4970400;28;25096;-74
2024/03/15 03:43:09;;;;;;;10.88;6.70;;;;;;;;;;4965885;28;25070;-72
2024/03/15 03:45:36;;;;;;;8.85;6.97;;;;;;;;;;4970835;28;25177;-71
2024/03/15 03:48:03;;;;;;;10.05;6.43;;;;;;;;;;4969917;28;25074;-73
2024/03/15 03:50:29;;;;;;;9.02;6.50;;;;;;;;;;4969012;28;25062;-73
2024/03/15 03:52:55;;;;;;;15.25;6.55;;;;;;;;;;4968272;28;25087;-73
2024/03/15 03:55:21;;;;;;;10.80;6.22;;;;;;;;;;4971045;28;25075;-74
2024/03/15 03:57:47;;;;;;;7.32;5.57;;;;;;;;;;4969265;28;25149;-73
2024/03/15 04:00:16;;;;;;;11.40;6.40;;;;;;;;;;4965041;28;25164;-72
2024/03/15 04:02:43;;;;;;;8.80;5.85;;;;;;;;;;4970835;28;25065;-72
2024/03/15 04:05:10;;;;;;;10.95;6.35;;;;;;;;;;4967066;28;25141;-73
2024/03/15 04:07:36;;;;;;;12.85;6.47;;;;;;;;;;4967102;28;25081;-73
2024/03/15 04:10:02;;;;;;;9.20;5.80;;;;;;;;;;4963116;28;25052;-71
2024/03/15 04:12:28;;;;;;;10.30;6.43;;;;;;;;;;4962641;28;25139;-72
2024/03/15 04:14:54;;;;;;;13.57;6.38;;;;;;;;;;4966955;28;25074;-73
2024/03/15 04:17:20;;;;;;;10.13;5.93;;;;;;;;;;4963639;28;25065;-72
2024/03/15 04:19:47;;;;;;;8.10;5.63;;;;;;;;;;4968037;28;25055;-73
2024/03/15 04:22:13;;;;;;;8.95;5.70;;;;;;;;;;4964366;28;25077;-72
2024/03/15 04:24:39;;;;;;;10.20;6.00;;;;;;;;;;4979356;28;25082;-73
2024/03/15 04:27:08;;;;;;;15.15;6.00;;;;;;;;;;4966528;28;25067;-72
2024/03/15 04:29:35;;;;;;;9.65;5.07;;;;;;;;;;4965743;28;25200;-73
2024/03/15 04:32:02;;;;;;;9.30;5.47;;;;;;;;;;4969638;28;25528;-72
2024/03/15 04:34:28;;;;;;;8.70;5.65;;;;;;;;;;4968816;28;25065;-73
2024/03/15 04:36:54;;;;;;;8.32;5.05;;;;;;;;;;4970329;28;25122;-73
2024/03/15 04:39:22;;;;;;;11.55;5.88;;;;;;;;;;4967584;28;25144;-75
2024/03/15 04:41:48;;;;;;;13.27;6.50;;;;;;;;;;4964109;28;25077;-73
2024/03/15 04:44:14;;;;;;;17.00;7.80;;;;;;;;;;4960760;28;25075;-71
2024/03/15 04:46:40;;;;;;;11.23;6.57;;;;;;;;;;4966516;28;25161;-73
2024/03/15 04:49:07;;;;;;;14.98;7.70;;;;;;;;;;4967110;28;25052;-73
2024/03/15 04:51:33;;;;;;;12.43;7.35;;;;;;;;;;4969329;28;25074;-73
2024/03/15 04:53:59;;;;;;;14.32;8.13;;;;;;;;;;4966091;28;25075;-73
2024/03/15 04:56:25;;;;;;;14.15;7.50;;;;;;;;;;4960654;28;25074;-73
2024/03/15 04:58:51;;;;;;;10.52;7.78;;;;;;;;;;4971492;28;25064;-74
2024/03/15 05:01:17;;;;;;;10.07;7.45;;;;;;;;;;4963084;28;25072;-71
2024/03/15 05:03:43;;;;;;;10.10;8.00;;;;;;;;;;4966306;28;25091;-71
2024/03/15 05:06:09;;;;;;;9.25;7.35;;;;;;;;;;4968479;28;25057;-72
2024/03/15 05:08:35;;;;;;;11.38;7.25;;;;;;;;;;4966553;28;25080;-72
2024/03/15 05:11:01;;;;;;;10.35;6.68;;;;;;;;;;4973943;28;25056;-72
2024/03/15 05:13:28;;;;;;;13.27;7.65;;;;;;;;;;4966881;28;25092;-72
2024/03/15 05:15:54;;;;;;;13.75;7.57;;;;;;;;;;4967387;28;25129;-73
2024/03/15 05:18:20;;;;;;;11.95;6.70;;;;;;;;;;4966769;28;25069;-72
2024/03/15 05:20:49;;;;;;;10.25;7.05;;;;;;;;;;4968644;28;25087;-74
2024/03/15 05:23:15;;;;;;;12.80;7.10;;;;;;;;;;4966473;28;25174;-73
2024/03/15 05:25:41;;;;;;;10.02;6.35;;;;;;;;;;4967712;28;25107;-72
2024/03/15 05:28:10;;;;;;;13.10;6.40;;;;;;;;;;4972070;28;25054;-74
2024/03/15 05:30:36;;;;;;;10.32;6.40;;;;;;;;;;4967680;28;25105;-74
2024/03/15 05:33:02;;;;;;;9.23;6.22;;;;;;;;;;4960415;28;25141;-73
2024/03/15 05:35:29;;;;;;;15.25;6.30;;;;;;;;;;4964956;28;25064;-73
2024/03/15 05:37:55;;;;;;;8.45;5.90;;;;;;;;;;4964661;28;25160;-73
2024/03/15 05:40:23;;;;;;;8.90;5.68;;;;;;;;;;4966805;28;25074;-73
2024/03/15 05:42:49;;;;;;;8.02;5.50;;;;;;;;;;4967897;28;25144;-73
2024/03/15 05:45:17;;;;;;;13.50;6.55;;;;;;;;;;4968779;28;25164;-74
2024/03/15 05:47:43;;;;;;;9.27;5.70;;;;;;;;;;4967428;28;25054;-74
2024/03/15 05:50:11;;;;;;;9.55;6.55;;;;;;;;;;4967040;28;25100;-72
2024/03/15 05:52:37;;;;;;;12.35;6.07;;;;;;;;;;4957486;28;25070;-74
2024/03/15 05:55:03;;;;;;;11.73;6.80;;;;;;;;;;4967732;28;25061;-72
2024/03/15 05:57:32;;;;;;;12.68;6.60;;;;;;;;;;4968546;28;25109;-74
2024/03/15 06:00:07;;;;;;;9.32;6.13;;;;;;;;;;4963684;28;25134;-74
2024/03/15 06:02:33;;;;;;;11.38;6.50;;;;;;;;;;4964940;28;25167;-71
2024/03/15 06:04:59;;;;;;;13.10;6.15;;;;;;;;;;4964148;28;25130;-75
2024/03/15 06:07:25;;;;;;;13.50;6.47;;;;;;;;;;4965302;28;25151;-75
2024/03/15 06:09:51;;;;;;;12.32;7.57;;;;;;;;;;4958856;28;25060;-73
2024/03/15 06:12:17;;;;;;;11.35;6.72;;;;;;;;;;4962890;28;25066;-74
2024/03/15 06:14:43;;;;;;;14.77;7.10;;;;;;;;;;4971154;28;25058;-74
2024/03/15 06:17:09;;;;;;;13.68;6.78;;;;;;;;;;4968939;28;25058;-76
2024/03/15 06:19:35;;;;;;;12.60;6.13;;;;;;;;;;4957262;28;25101;-73
2024/03/15 06:22:01;;;;;;;15.93;6.53;;;;;;;;;;4973156;28;25112;-74
2024/03/15 06:24:27;;;;;;;9.30;6.05;;;;;;;;;;4970733;28;25065;-73
2024/03/15 06:26:54;;;;;;;10.85;6.13;;;;;;;;;;4972560;28;25078;-73
2024/03/15 06:29:23;;;;;;;12.05;6.50;;;;;;;;;;4968365;28;25106;-75
2024/03/15 06:31:49;;;;;;;11.77;6.45;;;;;;;;;;4953248;28;25082;-75
2024/03/15 06:34:21;;;;;;;8.43;5.05;;;;;;;;;;4956778;28;25140;-74
2024/03/15 06:36:53;;;;;;;7.65;5.88;;;;;;;;;;4960895;28;25109;-74
2024/03/15 06:40:00;;;;;;;12.00;5.40;;;;;;;;;;4964677;28;25050;-77
2024/03/15 06:42:23;;;;;;;11.10;5.55;;;;;;;;;;4959340;28;25052;-74
2024/03/15 06:45:12;;;;;;;10.80;5.50;;;;;;;;;;4958201;28;25062;-75
2024/03/15 06:47:40;;;;;;;9.18;4.57;;;;;;;;;;4957550;28;25095;-74
2024/03/15 06:52:38;;;;;;;10.68;5.25;;;;;;;;;;4966857;28;25176;-75
2024/03/15 06:55:08;;;;;;;12.02;4.85;;;;;;;;;;4966072;28;25090;-74
2024/03/15 06:57:37;;;;;;;17.08;5.68;;;;;;;;;;4973070;28;25059;-73
2024/03/15 07:00:10;;;;;;;10.35;5.78;;;;;;;;;;4972265;28;25089;-75
2024/03/15 07:02:41;;;;;;;9.18;5.80;;;;;;;;;;4974112;28;25068;-75
2024/03/15 07:05:07;;;;;;;11.90;6.10;;;;;;;;;;4962090;28;25058;-75
2024/03/15 07:07:36;;;;;;;10.55;6.05;;;;;;;;;;4964535;28;25057;-74
2024/03/15 07:10:03;;;;;;;11.60;5.72;;;;;;;;;;4968166;28;25052;-73
2024/03/15 07:12:29;;;;;;;10.20;6.25;;;;;;;;;;4975911;28;25112;-73
2024/03/15 07:14:55;;;;;;;11.18;5.88;;;;;;;;;;4980664;28;25141;-74
2024/03/15 07:17:24;;;;;;;11.23;6.10;;;;;;;;;;4994808;28;25064;-75
2024/03/15 07:19:51;;;;;;;12.43;6.30;;;;;;;;;;4976778;28;25103;-74
2024/03/15 07:22:17;;;;;;;17.88;6.68;;;;;;;;;;4991164;28;25077;-75
2024/03/15 07:24:48;;;;;;;11.60;6.93;;;;;;;;;;4980937;28;25066;-75
2024/03/15 07:27:14;;;;;;;12.80;6.50;;;;;;;;;;4962663;28;25056;-75
2024/03/15 07:29:41;;;;;;;13.70;6.43;;;;;;;;;;4974696;28;25053;-73
2024/03/15 07:32:07;;;;;;;16.55;5.60;;;;;;;;;;4969600;28;25076;-75
2024/03/15 07:34:33;;;;;;;13.90;7.03;;;;;;;;;;4974248;28;25067;-73
2024/03/15 07:37:01;;;;;;;10.43;5.45;;;;;;;;;;4974121;28;25123;-74
2024/03/15 07:39:29;;;;;;;14.30;5.57;;;;;;;;;;4984156;28;25064;-74
2024/03/15 07:41:59;;;;;;;11.75;5.32;;;;;;;;;;4969065;28;25052;-74
2024/03/15 07:44:25;;;;;;;11.20;5.20;;;;;;;;;;4968100;28;25077;-74
2024/03/15 07:46:51;;;;;;;10.98;4.43;;;;;;;;;;4970110;28;25069;-74
2024/03/15 07:49:18;;;;;;;12.88;4.80;;;;;;;;;;4961614;28;25057;-73
2024/03/15 07:51:46;;;;;;;9.48;3.90;;;;;;;;;;4958318;28;25065;-75
2024/03/15 07:54:12;;;;;;;9.48;4.18;;;;;;;;;;4961425;28;25079;-75
2024/03/15 07:56:38;;;;;;;10.60;4.55;;;;;;;;;;4961643;28;24940;-73
2024/03/15 07:59:04;;;;;;;9.82;4.22;;;;;;;;;;4975915;28;25071;-72
2024/03/15 08:01:33;;;;;;;11.73;4.07;;;;;;;;;;4966668;28;25085;-73
2024/03/15 08:03:59;;;;;;;11.57;4.68;;;;;;;;;;4955874;28;25077;-73
2024/03/15 08:06:26;;;;;;;11.07;5.13;;;;;;;;;;4959922;28;25065;-74
2024/03/15 08:08:52;;;;;;;11.63;3.75;;;;;;;;;;4969704;28;25059;-74
2024/03/15 08:11:19;;;;;;;10.45;3.70;;;;;;;;;;4971309;28;25059;-73
2024/03/15 08:13:46;;;;;;;10.75;3.72;;;;;;;;;;4967505;28;25080;-73
2024/03/15 08:16:18;;;;;;;15.98;4.32;;;;;;;;;;4963252;28;25068;-73
2024/03/15 08:18:48;;;;;;;8.20;3.97;;;;;;;;;;4961324;28;25074;-75
2024/03/15 08:21:17;;;;;;;10.73;4.55;;;;;;;;;;4954294;28;25085;-73
2024/03/15 08:23:44;;;;;;;12.93;5.13;;;;;;;;;;4965324;28;25136;-74
2024/03/15 08:26:11;;;;;;;7.45;3.70;;;;;;;;;;4970286;28;25141;-74
2024/03/15 08:28:37;;;;;;;15.60;4.40;;;;;;;;;;4966428;28;25072;-75
2024/03/15 08:31:03;;;;;;;11.35;4.65;;;;;;;;;;4971338;28;25098;-74
2024/03/15 08:33:30;;;;;;;8.70;3.70;;;;;;;;;;4971742;28;25138;-74
2024/03/15 08:35:56;;;;;;;14.27;4.00;;;;;;;;;;4978448;28;25105;-74
2024/03/15 08:38:22;;;;;;;10.70;3.97;;;;;;;;;;4970577;28;25058;-75
2024/03/15 08:40:48;;;;;;;12.30;5.18;;;;;;;;;;4971875;28;25054;-73
2024/03/15 08:43:15;;;;;;;11.15;3.92;;;;;;;;;;4967987;28;25063;-73
2024/03/15 08:45:41;;;;;;;16.52;4.45;;;;;;;;;;4975148;28;25097;-72
2024/03/15 08:48:07;;;;;;;15.70;4.13;;;;;;;;;;4971043;28;25067;-75
2024/03/15 08:50:33;;;;;;;9.80;3.67;;;;;;;;;;4963643;28;25107;-73
2024/03/15 08:52:59;;;;;;;17.65;4.55;;;;;;;;;;4980556;28;25100;-74
2024/03/15 08:55:25;;;;;;;10.00;3.88;;;;;;;;;;4971140;28;25065;-73
2024/03/15 08:57:51;;;;;;;10.38;3.65;;;;;;;;;;4965172;28;25148;-75
2024/03/15 09:00:17;;;;;;;16.13;4.45;;;;;;;;;;4971654;28;25145;-73
2024/03/15 09:02:44;;;;;;;20.17;5.93;;;;;;;;;;4967621;28;25063;-75
2024/03/15 09:05:10;;;;;;;13.55;4.18;;;;;;;;;;4973695;28;25126;-75
2024/03/15 09:07:37;;;;;;;14.85;3.75;;;;;;;;;;4966216;28;25143;-74
2024/03/15 09:10:13;;;;;;;11.55;4.38;;;;;;;;;;4958149;28;25073;-71
2024/03/15 09:12:39;;;;;;;8.88;3.05;;;;;;;;;;4973324;28;25052;-73
2024/03/15 09:15:07;;;;;;;13.20;3.53;;;;;;;;;;4974211;28;25066;-73
2024/03/15 09:17:34;;;;;;;15.10;3.70;;;;;;;;;;4974615;28;25056;-73
2024/03/15 09:20:09;;;;;;;12.85;3.30;;;;;;;;;;4972332;28;25084;-72
2024/03/15 09:22:35;;;;;;;15.13;3.42;;;;;;;;;;4975149;28;25081;-74
2024/03/15 09:25:01;;;;;;;14.25;3.35;;;;;;;;;;4971542;28;25112;-75
2024/03/15 09:27:27;;;;;;;13.40;3.70;;;;;;;;;;4970869;28;25069;-74
2024/03/15 09:29:53;;;;;;;12.98;3.78;;;;;;;;;;4989174;28;25072;-74
2024/03/15 09:32:25;;;;;;;15.95;4.03;;;;;;;;;;4967419;28;25051;-74
2024/03/15 09:34:52;;;;;;;14.18;3.30;;;;;;;;;;4969262;28;25093;-73
2024/03/15 09:37:19;;;;;;;13.65;3.33;;;;;;;;;;4968286;28;25042;-75
2024/03/15 09:39:45;;;;;;;12.48;3.72;;;;;;;;;;4966600;28;25134;-72
2024/03/15 09:42:15;;;;;;;8.80;3.10;;;;;;;;;;4961791;28;25133;-75
2024/03/15 09:44:41;;;;;;;15.07;3.85;;;;;;;;;;4970666;28;25064;-72
2024/03/15 09:47:10;;;;;;;8.77;2.50;;;;;;;;;;4974179;28;25074;-75
2024/03/15 09:49:37;;;;;;;12.65;2.75;;;;;;;;;;4963821;28;25049;-76
2024/03/15 09:52:05;;;;;;;12.23;3.67;;;;;;;;;;4968721;28;25054;-75
2024/03/15 09:54:31;;;;;;;11.38;2.72;;;;;;;;;;4970706;28;25073;-74
2024/03/15 09:56:58;;;;;;;12.27;3.10;;;;;;;;;;4970683;28;25115;-74
2024/03/15 09:59:29;;;;;;;14.38;2.80;;;;;;;;;;4964799;28;25080;-73
2024/03/15 10:01:55;;;;;;;14.60;3.75;;;;;;;;;;4969805;28;25066;-75
2024/03/15 10:04:21;;;;;;;13.50;2.88;;;;;;;;;;4970519;28;25051;-74
2024/03/15 10:06:47;;;;;;;12.43;2.80;;;;;;;;;;4971646;28;25088;-75
2024/03/15 10:09:13;;;;;;;9.55;2.90;;;;;;;;;;4972932;28;25053;-74
2024/03/15 10:11:39;;;;;;;10.63;2.88;;;;;;;;;;4970126;28;25087;-74
2024/03/15 10:14:07;;;;;;;7.20;2.60;;;;;;;;;;4963966;28;25102;-74
2024/03/15 10:16:37;;;;;;;14.13;3.47;;;;;;;;;;4972571;28;25057;-73
2024/03/15 10:19:04;;;;;;;13.85;3.08;;;;;;;;;;4971764;28;25049;-74
2024/03/15 10:21:30;;;;;;;9.43;3.13;;;;;;;;;;4967481;28;25147;-72
2024/03/15 10:23:56;;;;;;;10.68;2.72;;;;;;;;;;4969519;28;25066;-73
2024/03/15 10:26:22;;;;;;;9.88;3.40;;;;;;;;;;4974901;28;25082;-73
2024/03/15 10:28:48;;;;;;;11.93;3.20;;;;;;;;;;4967631;28;25072;-75
2024/03/15 10:31:14;;;;;;;9.80;3.58;;;;;;;;;;4954942;28;25073;-74
2024/03/15 10:33:40;;;;;;;12.27;2.95;;;;;;;;;;4965787;28;25059;-74
2024/03/15 10:36:08;;;;;;;9.05;3.13;;;;;;;;;;4969953;28;25054;-73
2024/03/15 10:38:34;;;;;;;7.97;2.35;;;;;;;;;;4968380;28;25064;-73
2024/03/15 10:41:00;;;;;;;13.55;2.50;;;;;;;;;;4964738;28;25077;-71
2024/03/15 10:43:26;;;;;;;9.55;2.65;;;;;;;;;;4962160;28;25058;-74
2024/03/15 10:45:52;;;;;;;7.32;2.78;;;;;;;;;;4970605;28;25068;-73
2024/03/15 10:48:19;;;;;;;8.63;2.65;;;;;;;;;;4964713;28;25148;-72
2024/03/15 10:50:46;;;;;;;10.48;2.40;;;;;;;;;;4961487;28;25061;-72
2024/03/15 10:53:16;;;;;;;12.43;3.03;;;;;;;;;;4968685;28;25160;-75
2024/03/15 10:55:47;;;;;;;10.20;2.85;;;;;;;;;;4970275;28;25166;-74
2024/03/15 10:58:14;;;;;;;11.57;2.90;;;;;;;;;;4968947;28;25078;-75
2024/03/15 11:00:40;;;;;;;8.10;2.75;;;;;;;;;;4966604;28;25150;-72
2024/03/15 11:03:17;;;;;;;9.80;3.20;;;;;;;;;;4966785;28;25157;-74
2024/03/15 11:05:43;;;;;;;6.85;3.08;;;;;;;;;;4966562;28;25053;-73
2024/03/15 11:08:12;;;;;;;10.93;3.47;;;;;;;;;;4969177;28;25076;-74
2024/03/15 11:10:38;;;;;;;10.40;2.97;;;;;;;;;;4968726;28;25144;-74
2024/03/15 11:13:04;;;;;;;9.10;2.38;;;;;;;;;;4970232;28;25074;-73
2024/03/15 11:15:33;;;;;;;10.18;3.83;;;;;;;;;;4974357;28;25051;-74
2024/03/15 11:18:02;;;;;;;13.45;2.40;;;;;;;;;;4973591;28;25064;-74
2024/03/15 11:20:44;;;;;;;12.95;2.25;;;;;;;;;;4968059;28;25059;-72
2024/03/15 11:23:14;;;;;;;7.03;2.38;;;;;;;;;;4974895;28;25071;-72
2024/03/15 11:25:42;;;;;;;8.25;1.95;;;;;;;;;;4975261;28;25092;-75
2024/03/15 11:28:08;;;;;;;4.45;1.90;;;;;;;;;;5002607;28;25060;-75
2024/03/15 11:30:34;;;;;;;7.82;2.60;;;;;;;;;;4985412;28;25051;-74
2024/03/15 11:33:01;;;;;;;10.23;2.80;;;;;;;;;;4981397;28;25100;-73
2024/03/15 11:35:27;;;;;;;3.95;1.98;;;;;;;;;;4979561;28;25074;-72
2024/03/15 11:37:57;;;;;;;7.68;2.38;;;;;;;;;;4980141;28;25169;-73
2024/03/15 11:40:24;;;;;;;6.00;2.47;;;;;;;;;;4972657;28;25078;-74
2024/03/15 11:42:50;;;;;;;7.35;2.58;;;;;;;;;;4971959;28;25070;-74
2024/03/15 11:45:16;;;;;;;9.80;2.63;;;;;;;;;;4977053;28;25045;-74
2024/03/15 11:47:42;;;;;;;6.80;2.60;;;;;;;;;;4973744;28;25077;-74
2024/03/15 11:50:14;;;;;;;5.00;2.50;;;;;;;;;;4970370;28;25112;-77
2024/03/15 11:52:40;;;;;;;;;;;;;;;;;;4964478;28;25059;-73
2024/03/15 11:55:08;;;;;;;5.53;2.50;;;;;;;;;;4960744;28;25100;-73
2024/03/15 11:57:35;;;;;;;3.03;1.80;;;;;;;;;;4963175;28;25075;-72
2024/03/15 12:00:09;;;;;;;3.05;1.75;;;;;;;;;;4973979;28;25168;-74
2024/03/15 12:02:37;;;;;;;5.40;2.08;;;;;;;;;;4971911;28;25070;-74
2024/03/15 12:05:04;;;;;;;6.32;2.95;;;;;;;;;;4972844;28;25138;-73
2024/03/15 12:07:30;;;;;;;4.50;1.98;;;;;;;;;;4969601;28;25135;-75
2024/03/15 12:10:00;;;;;;;6.70;2.67;;;;;;;;;;4967397;28;25056;-76
2024/03/15 12:12:26;;;;;;;6.75;2.40;;;;;;;;;;4970879;28;25069;-76
2024/03/15 12:14:53;;;;;;;4.05;2.05;;;;;;;;;;4976395;28;25080;-75
2024/03/15 12:17:21;;;;;;;5.20;2.28;;;;;;;;;;4970221;28;25085;-75
2024/03/15 12:19:47;;;;;;;4.15;2.08;;;;;;;;;;4973803;28;25130;-74
2024/03/15 12:22:13;;;;;;;6.57;2.20;;;;;;;;;;4968582;28;25073;-76
2024/03/15 12:24:39;;;;;;;3.53;1.45;;;;;;;;;;4977917;28;25049;-75
2024/03/15 12:27:07;;;;;;;4.05;1.67;;;;;;;;;;4973240;28;25062;-73
2024/03/15 12:29:33;;;;;;;3.00;1.40;;;;;;;;;;4976812;28;25078;-74
2024/03/15 12:31:59;;;;;;;6.88;1.60;;;;;;;;;;4970067;28;25064;-75
2024/03/15 12:34:25;;;;;;;9.98;2.47;;;;;;;;;;4969960;28;25114;-75
2024/03/15 12:36:52;;;;;;;4.90;1.92;;;;;;;;;;4972643;28;25096;-74
2024/03/15 12:39:18;;;;;;;7.90;1.90;;;;;;;;;;4964636;28;25049;-74
2024/03/15 12:41:44;;;;;;;5.97;1.85;;;;;;;;;;4971450;28;25080;-75
2024/03/15 12:44:10;;;;;;;4.78;1.83;;;;;;;;;;4972604;28;25069;-74
2024/03/15 12:46:36;;;;;;;3.88;1.83;;;;;;;;;;4976105;28;25086;-76
2024/03/15 12:49:01;;;;;;;4.00;2.13;;;;;;;;;;4971012;28;25055;-74
2024/03/15 12:51:28;;;;;;;6.85;2.08;;;;;;;;;;4972448;28;25077;-74
2024/03/15 12:53:55;;;;;;;6.45;1.88;;;;;;;;;;4969489;28;25160;-74
2024/03/15 12:56:22;;;;;;;7.95;2.10;;;;;;;;;;4967708;28;25089;-76
2024/03/15 12:58:48;;;;;;;8.90;2.53;;;;;;;;;;4971123;28;25080;-76
2024/03/15 13:01:14;;;;;;;5.60;2.20;;;;;;;;;;4972109;28;25139;-74
2024/03/15 13:03:40;;;;;;;6.00;1.70;;;;;;;;;;4970594;28;25076;-74
2024/03/15 13:06:09;;;;;;;5.13;1.90;;;;;;;;;;4972036;28;25061;-77
2024/03/15 13:08:35;;;;;;;5.13;1.77;;;;;;;;;;4974224;28;25074;-74
2024/03/15 13:11:01;;;;;;;6.30;1.60;;;;;;;;;;4970205;28;25067;-73
2024/03/15 13:13:27;;;;;;;5.43;1.70;;;;;;;;;;4969235;28;25071;-74
2024/03/15 13:15:53;;;;;;;4.75;2.38;;;;;;;;;;4969625;28;25080;-71
2024/03/15 13:18:19;;;;;;;6.47;2.00;;;;;;;;;;4969192;28;25361;-74
2024/03/15 13:20:46;;;;;;;4.93;2.20;;;;;;;;;;4973060;28;25094;-77
2024/03/15 13:23:12;;;;;;;5.10;1.73;;;;;;;;;;4972160;28;25070;-75
2024/03/15 13:25:38;;;;;;;10.40;2.35;;;;;;;;;;4968845;28;25063;-74
2024/03/15 13:28:07;;;;;;;4.75;1.70;;;;;;;;;;4973598;28;25052;-75
2024/03/15 13:30:33;;;;;;;6.70;1.80;;;;;;;;;;4972717;28;25051;-73
2024/03/15 13:33:00;;;;;;;6.40;2.30;;;;;;;;;;4969095;28;25126;-76
2024/03/15 13:35:28;;;;;;;8.23;2.47;;;;;;;;;;4969657;28;25055;-74
2024/03/15 13:37:54;;;;;;;7.82;2.28;;;;;;;;;;4966043;28;25075;-75
2024/03/15 13:40:22;;;;;;;7.22;2.25;;;;;;;;;;4967287;28;25058;-77
2024/03/15 13:42:48;;;;;;;10.48;2.25;;;;;;;;;;4970150;28;25066;-74
2024/03/15 13:45:15;;;;;;;11.02;2.70;;;;;;;;;;4970852;28;25064;-76
2024/03/15 13:47:41;;;;;;;8.63;2.55;;;;;;;;;;4965879;28;25088;-73
2024/03/15 13:50:15;;;;;;;10.25;2.70;;;;;;;;;;4962896;28;25085;-77
2024/03/15 13:52:41;;;;;;;13.38;2.33;;;;;;;;;;4965470;28;25084;-75
2024/03/15 13:55:08;;;;;;;6.32;2.17;;;;;;;;;;4969534;28;25086;-77
2024/03/15 13:57:37;;;;;;;10.77;2.70;;;;;;;;;;4964200;28;25134;-76
2024/03/15 14:00:17;;;;;;;21.23;4.82;;;;;;;;;;4967242;28;25081;-73
2024/03/15 14:02:50;;;;;;;22.90;6.28;;;;;;;;;;4964480;28;25073;-77
2024/03/15 14:05:15;;;;;;;15.02;4.68;;;;;;;;;;4963323;28;25065;-76
2024/03/15 14:07:42;;;;;;;13.15;3.97;;;;;;;;;;4972923;28;25074;-77
2024/03/15 14:10:17;;;;;;;18.92;4.18;;;;;;;;;;4966252;28;25098;-76
2024/03/15 14:12:43;;;;;;;16.55;4.63;;;;;;;;;;4963109;28;25068;-76
2024/03/15 14:15:11;;;;;;;14.88;4.00;;;;;;;;;;4967827;28;25075;-74
2024/03/15 14:17:38;;;;;;;16.95;4.57;;;;;;;;;;4960224;28;25107;-75
2024/03/15 14:20:04;;;;;;;14.25;5.20;;;;;;;;;;4960276;28;25073;-75
2024/03/15 14:22:31;;;;;;;12.75;4.43;;;;;;;;;;4968219;28;25106;-75
2024/03/15 14:24:57;;;;;;;13.85;4.80;;;;;;;;;;4964289;28;25146;-74
2024/03/15 14:27:23;;;;;;;16.98;5.22;;;;;;;;;;4965941;28;25079;-75
2024/03/15 14:29:50;;;;;;;15.57;5.22;;;;;;;;;;4978980;28;25154;-74
2024/03/15 14:32:16;;;;;;;19.30;5.10;;;;;;;;;;4982750;28;25082;-73
2024/03/15 14:34:45;;;;;;;15.60;4.75;;;;;;;;;;4964718;28;25063;-74